Terminal Aerodrome Forecast
Issued by NWS Duluth, MN

Home | Current Version | Previous Version | Text Only | Print | Product List | Glossary On
Versions: 1 2 3 4 5 6 7 8 9 10 11 12 13 14 15 16 17 18 19 20 21 22 23 24 25 26 27 28
670
FTUS43 KDLH 291458 AAC
TAFDLH
TAF AMD
KDLH 291458Z 2915/3012 30012G20KT P6SM VCSH SCT010 BKN025
      TEMPO 2915/2918 5SM -DZ BKN012
     FM292000 29012G22KT P6SM BKN040
     FM300200 27010KT P6SM SCT050
     FM300900 26004KT 5SM BR SCT070=

USA.gov is the U.S. government's official web portal to all federal, state and local government web resources and services.